Terminal Aerodrome Forecast
Issued by NWS

Home | Current Version | Previous Version | Text Only | Print | Product List | Glossary On
Versions: 1 2 3 4 5 6 7 8 9 10 11 12 13 14
000
FTUS46 KMTR 230524
TAFOAK
TAF
KOAK 230524Z 2306/2412 29008KT P6SM SKC
     FM230900 VRB03KT P6SM SKC
     FM231700 29006KT P6SM SKC
     FM232100 29014KT P6SM SKC
     FM240400 29008KT P6SM SKC=

USA.gov is the U.S. government's official web portal to all federal, state and local government web resources and services.